sensor_id;sensor_type;location;lat;lon;timestamp;P1;durP1;ratioP1;P2;durP2;ratioP2
9698;SDS011;10089;47.876;8.346;2023-09-08T00:02:06;8.48;;;6.25;;
9698;SDS011;10089;47.876;8.346;2023-09-08T00:04:32;7.90;;;6.90;;
9698;SDS011;10089;47.876;8.346;2023-09-08T00:07:00;8.05;;;7.10;;
9698;SDS011;10089;47.876;8.346;2023-09-08T00:09:26;7.72;;;6.50;;
9698;SDS011;10089;47.876;8.346;2023-09-08T00:11:51;7.60;;;6.68;;
9698;SDS011;10089;47.876;8.346;2023-09-08T00:14:19;8.23;;;6.47;;
9698;SDS011;10089;47.876;8.346;2023-09-08T00:16:44;7.20;;;6.40;;
9698;SDS011;10089;47.876;8.346;2023-09-08T00:19:10;8.48;;;6.47;;
9698;SDS011;10089;47.876;8.346;2023-09-08T00:21:36;6.95;;;6.20;;
9698;SDS011;10089;47.876;8.346;2023-09-08T00:24:03;7.45;;;6.65;;
9698;SDS011;10089;47.876;8.346;2023-09-08T00:26:32;7.50;;;6.70;;
9698;SDS011;10089;47.876;8.346;2023-09-08T00:28:57;7.63;;;6.72;;
9698;SDS011;10089;47.876;8.346;2023-09-08T00:31:23;7.22;;;6.53;;
9698;SDS011;10089;47.876;8.346;2023-09-08T00:33:49;9.02;;;6.75;;
9698;SDS011;10089;47.876;8.346;2023-09-08T00:36:14;7.68;;;6.90;;
9698;SDS011;10089;47.876;8.346;2023-09-08T00:38:40;7.72;;;6.50;;
9698;SDS011;10089;47.876;8.346;2023-09-08T00:41:06;7.97;;;7.25;;
9698;SDS011;10089;47.876;8.346;2023-09-08T00:43:32;9.40;;;6.53;;
9698;SDS011;10089;47.876;8.346;2023-09-08T00:45:58;8.52;;;7.03;;
9698;SDS011;10089;47.876;8.346;2023-09-08T00:48:24;6.60;;;5.95;;
9698;SDS011;10089;47.876;8.346;2023-09-08T00:50:50;8.00;;;7.20;;
9698;SDS011;10089;47.876;8.346;2023-09-08T00:53:16;7.72;;;6.68;;
9698;SDS011;10089;47.876;8.346;2023-09-08T00:55:42;10.40;;;7.55;;
9698;SDS011;10089;47.876;8.346;2023-09-08T00:58:10;10.10;;;6.75;;
9698;SDS011;10089;47.876;8.346;2023-09-08T01:00:37;8.27;;;6.63;;
9698;SDS011;10089;47.876;8.346;2023-09-08T01:03:03;7.57;;;6.60;;
9698;SDS011;10089;47.876;8.346;2023-09-08T01:05:28;8.85;;;7.13;;
9698;SDS011;10089;47.876;8.346;2023-09-08T01:07:54;7.55;;;6.53;;
9698;SDS011;10089;47.876;8.346;2023-09-08T01:10:22;7.20;;;6.50;;
9698;SDS011;10089;47.876;8.346;2023-09-08T01:12:48;12.02;;;6.43;;
9698;SDS011;10089;47.876;8.346;2023-09-08T01:15:13;9.35;;;7.47;;
9698;SDS011;10089;47.876;8.346;2023-09-08T01:17:39;9.65;;;6.47;;
9698;SDS011;10089;47.876;8.346;2023-09-08T01:25:50;9.20;;;7.15;;
9698;SDS011;10089;47.876;8.346;2023-09-08T01:28:19;8.23;;;7.20;;
9698;SDS011;10089;47.876;8.346;2023-09-08T01:30:46;8.48;;;7.20;;
9698;SDS011;10089;47.876;8.346;2023-09-08T01:33:13;14.20;;;6.80;;
9698;SDS011;10089;47.876;8.346;2023-09-08T01:35:39;7.95;;;7.20;;
9698;SDS011;10089;47.876;8.346;2023-09-08T01:38:04;7.70;;;6.90;;
9698;SDS011;10089;47.876;8.346;2023-09-08T01:40:30;7.63;;;6.80;;
9698;SDS011;10089;47.876;8.346;2023-09-08T01:42:56;7.50;;;6.53;;
9698;SDS011;10089;47.876;8.346;2023-09-08T01:45:21;7.70;;;6.57;;
9698;SDS011;10089;47.876;8.346;2023-09-08T01:47:47;11.43;;;7.28;;
9698;SDS011;10089;47.876;8.346;2023-09-08T01:50:12;8.55;;;7.25;;
9698;SDS011;10089;47.876;8.346;2023-09-08T01:52:38;7.32;;;6.57;;
9698;SDS011;10089;47.876;8.346;2023-09-08T01:55:03;8.48;;;7.03;;
9698;SDS011;10089;47.876;8.346;2023-09-08T01:57:29;7.05;;;6.40;;
9698;SDS011;10089;47.876;8.346;2023-09-08T01:59:55;9.52;;;7.22;;
9698;SDS011;10089;47.876;8.346;2023-09-08T02:02:20;7.22;;;6.28;;
9698;SDS011;10089;47.876;8.346;2023-09-08T02:04:47;8.82;;;6.30;;
9698;SDS011;10089;47.876;8.346;2023-09-08T02:07:13;7.60;;;6.88;;
9698;SDS011;10089;47.876;8.346;2023-09-08T02:09:39;9.50;;;7.18;;
9698;SDS011;10089;47.876;8.346;2023-09-08T02:12:04;8.13;;;7.20;;
9698;SDS011;10089;47.876;8.346;2023-09-08T02:14:30;8.15;;;6.85;;
9698;SDS011;10089;47.876;8.346;2023-09-08T02:16:56;7.85;;;7.05;;
9698;SDS011;10089;47.876;8.346;2023-09-08T02:19:22;7.90;;;7.10;;
9698;SDS011;10089;47.876;8.346;2023-09-08T02:21:48;8.07;;;6.63;;
9698;SDS011;10089;47.876;8.346;2023-09-08T02:24:14;8.52;;;7.03;;
9698;SDS011;10089;47.876;8.346;2023-09-08T02:26:39;9.68;;;7.28;;
9698;SDS011;10089;47.876;8.346;2023-09-08T02:29:05;8.48;;;7.32;;
9698;SDS011;10089;47.876;8.346;2023-09-08T02:31:32;8.73;;;6.57;;
9698;SDS011;10089;47.876;8.346;2023-09-08T02:33:58;8.20;;;6.88;;
9698;SDS011;10089;47.876;8.346;2023-09-08T02:36:23;6.85;;;6.00;;
9698;SDS011;10089;47.876;8.346;2023-09-08T02:38:52;8.52;;;6.97;;
9698;SDS011;10089;47.876;8.346;2023-09-08T02:41:18;6.85;;;6.15;;
9698;SDS011;10089;47.876;8.346;2023-09-08T02:43:44;8.40;;;7.35;;
9698;SDS011;10089;47.876;8.346;2023-09-08T02:46:09;8.73;;;7.30;;
9698;SDS011;10089;47.876;8.346;2023-09-08T02:48:35;7.63;;;6.90;;
9698;SDS011;10089;47.876;8.346;2023-09-08T02:51:01;10.18;;;6.90;;
9698;SDS011;10089;47.876;8.346;2023-09-08T02:53:26;7.32;;;6.63;;
9698;SDS011;10089;47.876;8.346;2023-09-08T02:55:54;9.25;;;6.85;;
9698;SDS011;10089;47.876;8.346;2023-09-08T02:58:20;7.68;;;6.95;;
9698;SDS011;10089;47.876;8.346;2023-09-08T03:00:46;10.27;;;6.38;;
9698;SDS011;10089;47.876;8.346;2023-09-08T03:03:11;7.57;;;6.85;;
9698;SDS011;10089;47.876;8.346;2023-09-08T03:05:37;8.35;;;7.22;;
9698;SDS011;10089;47.876;8.346;2023-09-08T03:08:03;8.63;;;6.45;;
9698;SDS011;10089;47.876;8.346;2023-09-08T03:10:30;7.80;;;7.00;;
9698;SDS011;10089;47.876;8.346;2023-09-08T03:12:59;9.25;;;6.90;;
9698;SDS011;10089;47.876;8.346;2023-09-08T03:15:25;8.43;;;7.57;;
9698;SDS011;10089;47.876;8.346;2023-09-08T03:17:53;7.47;;;6.72;;
9698;SDS011;10089;47.876;8.346;2023-09-08T03:20:19;7.55;;;6.50;;
9698;SDS011;10089;47.876;8.346;2023-09-08T03:22:45;7.95;;;7.00;;
9698;SDS011;10089;47.876;8.346;2023-09-08T03:25:10;8.38;;;6.97;;
9698;SDS011;10089;47.876;8.346;2023-09-08T03:27:38;6.97;;;6.20;;
9698;SDS011;10089;47.876;8.346;2023-09-08T03:30:03;11.18;;;6.80;;
9698;SDS011;10089;47.876;8.346;2023-09-08T03:32:29;11.52;;;6.50;;
9698;SDS011;10089;47.876;8.346;2023-09-08T03:34:55;9.55;;;6.90;;
9698;SDS011;10089;47.876;8.346;2023-09-08T03:37:21;7.75;;;6.95;;
9698;SDS011;10089;47.876;8.346;2023-09-08T03:39:47;7.90;;;7.10;;
9698;SDS011;10089;47.876;8.346;2023-09-08T03:42:13;10.73;;;7.07;;
9698;SDS011;10089;47.876;8.346;2023-09-08T03:44:38;7.72;;;6.93;;
9698;SDS011;10089;47.876;8.346;2023-09-08T03:47:04;7.88;;;6.93;;
9698;SDS011;10089;47.876;8.346;2023-09-08T03:49:30;8.38;;;7.30;;
9698;SDS011;10089;47.876;8.346;2023-09-08T03:51:56;8.18;;;7.38;;
9698;SDS011;10089;47.876;8.346;2023-09-08T03:54:23;10.68;;;7.30;;
9698;SDS011;10089;47.876;8.346;2023-09-08T03:56:48;8.70;;;7.25;;
9698;SDS011;10089;47.876;8.346;2023-09-08T03:59:14;8.57;;;7.50;;
9698;SDS011;10089;47.876;8.346;2023-09-08T04:01:39;8.25;;;7.35;;
9698;SDS011;10089;47.876;8.346;2023-09-08T04:04:05;8.43;;;7.38;;
9698;SDS011;10089;47.876;8.346;2023-09-08T04:06:31;9.43;;;8.00;;
9698;SDS011;10089;47.876;8.346;2023-09-08T04:08:56;8.13;;;7.32;;
9698;SDS011;10089;47.876;8.346;2023-09-08T04:11:22;8.40;;;6.90;;
9698;SDS011;10089;47.876;8.346;2023-09-08T04:13:47;8.68;;;7.78;;
9698;SDS011;10089;47.876;8.346;2023-09-08T04:16:13;9.23;;;7.75;;
9698;SDS011;10089;47.876;8.346;2023-09-08T04:18:39;7.75;;;6.95;;
9698;SDS011;10089;47.876;8.346;2023-09-08T04:21:06;8.50;;;7.10;;
9698;SDS011;10089;47.876;8.346;2023-09-08T04:23:32;7.90;;;7.10;;
9698;SDS011;10089;47.876;8.346;2023-09-08T04:25:58;8.18;;;7.35;;
9698;SDS011;10089;47.876;8.346;2023-09-08T04:28:23;9.00;;;7.57;;
9698;SDS011;10089;47.876;8.346;2023-09-08T04:30:49;8.43;;;7.50;;
9698;SDS011;10089;47.876;8.346;2023-09-08T04:33:14;7.95;;;7.15;;
9698;SDS011;10089;47.876;8.346;2023-09-08T04:35:40;8.65;;;7.75;;
9698;SDS011;10089;47.876;8.346;2023-09-08T04:38:06;7.07;;;6.38;;
9698;SDS011;10089;47.876;8.346;2023-09-08T04:40:32;7.88;;;6.72;;
9698;SDS011;10089;47.876;8.346;2023-09-08T04:42:57;8.35;;;7.50;;
9698;SDS011;10089;47.876;8.346;2023-09-08T04:45:23;8.75;;;7.10;;
9698;SDS011;10089;47.876;8.346;2023-09-08T04:47:48;8.18;;;6.95;;
9698;SDS011;10089;47.876;8.346;2023-09-08T04:50:14;7.88;;;6.70;;
9698;SDS011;10089;47.876;8.346;2023-09-08T04:52:40;9.80;;;7.50;;
9698;SDS011;10089;47.876;8.346;2023-09-08T04:55:06;8.02;;;7.13;;
9698;SDS011;10089;47.876;8.346;2023-09-08T04:57:32;10.48;;;7.03;;
9698;SDS011;10089;47.876;8.346;2023-09-08T04:59:57;7.80;;;7.00;;
9698;SDS011;10089;47.876;8.346;2023-09-08T05:02:23;8.07;;;6.85;;
9698;SDS011;10089;47.876;8.346;2023-09-08T05:04:48;12.70;;;7.18;;
9698;SDS011;10089;47.876;8.346;2023-09-08T05:07:14;8.02;;;7.22;;
9698;SDS011;10089;47.876;8.346;2023-09-08T05:09:39;10.85;;;6.72;;
9698;SDS011;10089;47.876;8.346;2023-09-08T05:12:05;9.98;;;6.82;;
9698;SDS011;10089;47.876;8.346;2023-09-08T05:14:31;12.10;;;7.38;;
9698;SDS011;10089;47.876;8.346;2023-09-08T05:16:56;13.07;;;7.07;;
9698;SDS011;10089;47.876;8.346;2023-09-08T05:19:22;8.32;;;6.72;;
9698;SDS011;10089;47.876;8.346;2023-09-08T05:21:49;7.53;;;6.72;;
9698;SDS011;10089;47.876;8.346;2023-09-08T05:24:16;7.93;;;6.75;;
9698;SDS011;10089;47.876;8.346;2023-09-08T05:26:41;6.72;;;6.03;;
9698;SDS011;10089;47.876;8.346;2023-09-08T05:29:07;6.25;;;5.65;;
9698;SDS011;10089;47.876;8.346;2023-09-08T05:31:36;8.38;;;6.68;;
9698;SDS011;10089;47.876;8.346;2023-09-08T05:34:01;9.10;;;7.28;;
9698;SDS011;10089;47.876;8.346;2023-09-08T05:36:28;7.15;;;6.45;;
9698;SDS011;10089;47.876;8.346;2023-09-08T05:38:55;8.00;;;7.20;;
9698;SDS011;10089;47.876;8.346;2023-09-08T05:41:20;7.80;;;7.00;;
9698;SDS011;10089;47.876;8.346;2023-09-08T05:43:46;7.70;;;6.60;;
9698;SDS011;10089;47.876;8.346;2023-09-08T05:46:12;11.07;;;7.03;;
9698;SDS011;10089;47.876;8.346;2023-09-08T05:48:38;8.27;;;7.32;;
9698;SDS011;10089;47.876;8.346;2023-09-08T05:51:03;13.25;;;7.55;;
9698;SDS011;10089;47.876;8.346;2023-09-08T05:53:31;7.38;;;6.65;;
9698;SDS011;10089;47.876;8.346;2023-09-08T05:55:56;8.02;;;7.22;;
9698;SDS011;10089;47.876;8.346;2023-09-08T05:58:22;8.27;;;7.20;;
9698;SDS011;10089;47.876;8.346;2023-09-08T06:00:49;8.35;;;7.38;;
9698;SDS011;10089;47.876;8.346;2023-09-08T06:03:14;7.97;;;7.10;;
9698;SDS011;10089;47.876;8.346;2023-09-08T06:05:40;8.52;;;7.65;;
9698;SDS011;10089;47.876;8.346;2023-09-08T06:08:06;9.13;;;6.57;;
9698;SDS011;10089;47.876;8.346;2023-09-08T06:10:31;8.05;;;6.80;;
9698;SDS011;10089;47.876;8.346;2023-09-08T06:12:57;8.63;;;7.53;;
9698;SDS011;10089;47.876;8.346;2023-09-08T06:15:22;9.98;;;7.13;;
9698;SDS011;10089;47.876;8.346;2023-09-08T06:17:48;8.52;;;7.22;;
9698;SDS011;10089;47.876;8.346;2023-09-08T06:20:14;8.70;;;6.53;;
9698;SDS011;10089;47.876;8.346;2023-09-08T06:22:41;6.85;;;6.15;;
9698;SDS011;10089;47.876;8.346;2023-09-08T06:25:06;9.82;;;7.70;;
9698;SDS011;10089;47.876;8.346;2023-09-08T06:27:32;7.60;;;6.80;;
9698;SDS011;10089;47.876;8.346;2023-09-08T06:29:58;7.05;;;6.35;;
9698;SDS011;10089;47.876;8.346;2023-09-08T06:32:24;7.20;;;6.50;;
9698;SDS011;10089;47.876;8.346;2023-09-08T06:34:49;9.38;;;6.07;;
9698;SDS011;10089;47.876;8.346;2023-09-08T06:37:15;8.57;;;6.18;;
9698;SDS011;10089;47.876;8.346;2023-09-08T06:39:40;6.90;;;6.20;;
9698;SDS011;10089;47.876;8.346;2023-09-08T06:42:06;10.63;;;6.32;;
9698;SDS011;10089;47.876;8.346;2023-09-08T06:44:31;8.05;;;7.00;;
9698;SDS011;10089;47.876;8.346;2023-09-08T06:46:57;8.05;;;6.20;;
9698;SDS011;10089;47.876;8.346;2023-09-08T06:49:22;7.80;;;6.03;;
9698;SDS011;10089;47.876;8.346;2023-09-08T06:51:48;6.57;;;5.80;;
9698;SDS011;10089;47.876;8.346;2023-09-08T06:54:14;6.65;;;6.05;;
9698;SDS011;10089;47.876;8.346;2023-09-08T06:56:39;6.97;;;6.18;;
9698;SDS011;10089;47.876;8.346;2023-09-08T06:59:05;6.80;;;6.15;;
9698;SDS011;10089;47.876;8.346;2023-09-08T07:01:31;9.80;;;6.35;;
9698;SDS011;10089;47.876;8.346;2023-09-08T07:03:56;7.15;;;6.45;;
9698;SDS011;10089;47.876;8.346;2023-09-08T07:06:22;7.43;;;6.53;;
9698;SDS011;10089;47.876;8.346;2023-09-08T07:08:48;7.40;;;6.18;;
9698;SDS011;10089;47.876;8.346;2023-09-08T07:11:16;8.05;;;6.47;;
9698;SDS011;10089;47.876;8.346;2023-09-08T07:13:42;8.23;;;6.18;;
9698;SDS011;10089;47.876;8.346;2023-09-08T07:16:08;8.10;;;6.65;;
9698;SDS011;10089;47.876;8.346;2023-09-08T07:18:33;7.07;;;6.38;;
9698;SDS011;10089;47.876;8.346;2023-09-08T07:21:01;7.90;;;6.63;;
9698;SDS011;10089;47.876;8.346;2023-09-08T07:23:27;6.57;;;5.95;;
9698;SDS011;10089;47.876;8.346;2023-09-08T07:25:53;7.28;;;6.00;;
9698;SDS011;10089;47.876;8.346;2023-09-08T07:28:18;6.55;;;5.95;;
9698;SDS011;10089;47.876;8.346;2023-09-08T07:30:44;7.05;;;6.25;;
9698;SDS011;10089;47.876;8.346;2023-09-08T07:56:22;6.70;;;6.05;;
9698;SDS011;10089;47.876;8.346;2023-09-08T07:58:48;10.20;;;6.45;;
9698;SDS011;10089;47.876;8.346;2023-09-08T08:01:19;6.75;;;6.15;;
9698;SDS011;10089;47.876;8.346;2023-09-08T08:03:45;7.70;;;6.93;;
9698;SDS011;10089;47.876;8.346;2023-09-08T08:06:13;6.93;;;6.25;;
9698;SDS011;10089;47.876;8.346;2023-09-08T08:08:39;8.88;;;7.03;;
9698;SDS011;10089;47.876;8.346;2023-09-08T08:11:09;9.27;;;6.45;;
9698;SDS011;10089;47.876;8.346;2023-09-08T08:13:39;7.93;;;6.47;;
9698;SDS011;10089;47.876;8.346;2023-09-08T08:16:07;8.73;;;6.07;;
9698;SDS011;10089;47.876;8.346;2023-09-08T08:18:33;7.13;;;6.43;;
9698;SDS011;10089;47.876;8.346;2023-09-08T08:21:01;11.82;;;6.35;;
9698;SDS011;10089;47.876;8.346;2023-09-08T08:23:28;6.25;;;5.60;;
9698;SDS011;10089;47.876;8.346;2023-09-08T08:26:01;9.15;;;6.13;;
9698;SDS011;10089;47.876;8.346;2023-09-08T08:28:26;6.95;;;5.57;;
9698;SDS011;10089;47.876;8.346;2023-09-08T08:30:52;9.30;;;5.43;;
9698;SDS011;10089;47.876;8.346;2023-09-08T08:33:18;6.18;;;5.57;;
9698;SDS011;10089;47.876;8.346;2023-09-08T08:35:49;8.65;;;5.70;;
9698;SDS011;10089;47.876;8.346;2023-09-08T08:38:15;5.85;;;5.32;;
9698;SDS011;10089;47.876;8.346;2023-09-08T08:40:41;19.17;;;6.03;;
9698;SDS011;10089;47.876;8.346;2023-09-08T08:43:07;10.55;;;5.80;;
9698;SDS011;10089;47.876;8.346;2023-09-08T08:45:32;5.93;;;5.32;;
9698;SDS011;10089;47.876;8.346;2023-09-08T08:48:01;7.68;;;5.25;;
9698;SDS011;10089;47.876;8.346;2023-09-08T08:50:28;6.72;;;5.45;;
9698;SDS011;10089;47.876;8.346;2023-09-08T08:52:56;5.90;;;5.10;;
9698;SDS011;10089;47.876;8.346;2023-09-08T08:55:23;6.25;;;5.47;;
9698;SDS011;10089;47.876;8.346;2023-09-08T08:57:50;9.60;;;5.25;;
9698;SDS011;10089;47.876;8.346;2023-09-08T09:00:17;6.10;;;5.00;;
9698;SDS011;10089;47.876;8.346;2023-09-08T09:02:43;6.30;;;5.15;;
9698;SDS011;10089;47.876;8.346;2023-09-08T09:05:13;8.40;;;5.25;;
9698;SDS011;10089;47.876;8.346;2023-09-08T09:07:39;6.05;;;4.70;;
9698;SDS011;10089;47.876;8.346;2023-09-08T09:10:08;6.78;;;5.43;;
9698;SDS011;10089;47.876;8.346;2023-09-08T09:12:38;5.50;;;5.00;;
9698;SDS011;10089;47.876;8.346;2023-09-08T09:15:04;5.80;;;5.18;;
9698;SDS011;10089;47.876;8.346;2023-09-08T09:17:34;5.57;;;5.07;;
9698;SDS011;10089;47.876;8.346;2023-09-08T09:20:17;6.88;;;5.10;;
9698;SDS011;10089;47.876;8.346;2023-09-08T09:23:07;7.13;;;5.40;;
9698;SDS011;10089;47.876;8.346;2023-09-08T09:25:33;5.22;;;4.72;;
9698;SDS011;10089;47.876;8.346;2023-09-08T09:28:01;5.63;;;5.00;;
9698;SDS011;10089;47.876;8.346;2023-09-08T09:30:28;6.82;;;4.90;;
9698;SDS011;10089;47.876;8.346;2023-09-08T09:33:11;7.03;;;5.28;;
9698;SDS011;10089;47.876;8.346;2023-09-08T09:35:41;5.50;;;5.00;;
9698;SDS011;10089;47.876;8.346;2023-09-08T09:38:11;6.57;;;4.90;;
9698;SDS011;10089;47.876;8.346;2023-09-08T09:40:37;8.30;;;4.95;;
9698;SDS011;10089;47.876;8.346;2023-09-08T09:43:04;5.43;;;4.93;;
9698;SDS011;10089;47.876;8.346;2023-09-08T09:45:31;6.45;;;4.95;;
9698;SDS011;10089;47.876;8.346;2023-09-08T09:47:59;5.18;;;4.68;;
9698;SDS011;10089;47.876;8.346;2023-09-08T09:50:28;5.53;;;4.82;;
9698;SDS011;10089;47.876;8.346;2023-09-08T09:52:57;6.25;;;4.65;;
9698;SDS011;10089;47.876;8.346;2023-09-08T09:55:24;8.00;;;4.63;;
9698;SDS011;10089;47.876;8.346;2023-09-08T09:57:51;5.28;;;4.78;;
9698;SDS011;10089;47.876;8.346;2023-09-08T10:00:20;5.50;;;4.78;;
9698;SDS011;10089;47.876;8.346;2023-09-08T10:02:46;5.63;;;5.05;;
9698;SDS011;10089;47.876;8.346;2023-09-08T10:05:12;8.65;;;5.20;;
9698;SDS011;10089;47.876;8.346;2023-09-08T10:07:39;5.45;;;4.93;;
9698;SDS011;10089;47.876;8.346;2023-09-08T10:10:05;9.35;;;5.10;;
9698;SDS011;10089;47.876;8.346;2023-09-08T10:12:31;5.80;;;5.22;;
9698;SDS011;10089;47.876;8.346;2023-09-08T10:15:00;8.30;;;5.15;;
9698;SDS011;10089;47.876;8.346;2023-09-08T10:17:30;7.72;;;5.95;;
9698;SDS011;10089;47.876;8.346;2023-09-08T10:19:56;9.20;;;5.85;;
9698;SDS011;10089;47.876;8.346;2023-09-08T10:22:26;6.53;;;4.95;;
9698;SDS011;10089;47.876;8.346;2023-09-08T10:24:57;16.13;;;5.65;;
9698;SDS011;10089;47.876;8.346;2023-09-08T10:27:28;5.55;;;4.97;;
9698;SDS011;10089;47.876;8.346;2023-09-08T10:29:54;15.88;;;5.60;;
9698;SDS011;10089;47.876;8.346;2023-09-08T10:32:36;6.53;;;5.43;;
9698;SDS011;10089;47.876;8.346;2023-09-08T10:35:22;6.55;;;5.28;;
9698;SDS011;10089;47.876;8.346;2023-09-08T10:37:48;6.05;;;5.43;;
9698;SDS011;10089;47.876;8.346;2023-09-08T10:40:20;8.98;;;4.90;;
9698;SDS011;10089;47.876;8.346;2023-09-08T10:42:47;12.75;;;5.55;;
9698;SDS011;10089;47.876;8.346;2023-09-08T10:45:17;5.45;;;4.95;;
9698;SDS011;10089;47.876;8.346;2023-09-08T10:50:18;5.53;;;5.03;;
9698;SDS011;10089;47.876;8.346;2023-09-08T10:52:45;5.32;;;4.63;;
9698;SDS011;10089;47.876;8.346;2023-09-08T10:55:39;5.60;;;5.10;;
9698;SDS011;10089;47.876;8.346;2023-09-08T10:58:09;6.57;;;4.72;;
9698;SDS011;10089;47.876;8.346;2023-09-08T11:00:51;5.40;;;4.90;;
9698;SDS011;10089;47.876;8.346;2023-09-08T11:03:26;7.60;;;4.60;;
9698;SDS011;10089;47.876;8.346;2023-09-08T11:06:07;5.00;;;4.53;;
9698;SDS011;10089;47.876;8.346;2023-09-08T11:08:34;5.47;;;4.97;;
9698;SDS011;10089;47.876;8.346;2023-09-08T11:11:02;5.20;;;4.60;;
9698;SDS011;10089;47.876;8.346;2023-09-08T11:13:28;5.50;;;4.78;;
9698;SDS011;10089;47.876;8.346;2023-09-08T11:15:54;11.95;;;5.35;;
9698;SDS011;10089;47.876;8.346;2023-09-08T11:18:29;6.32;;;4.72;;
9698;SDS011;10089;47.876;8.346;2023-09-08T11:20:56;6.00;;;5.22;;
9698;SDS011;10089;47.876;8.346;2023-09-08T11:23:22;6.20;;;5.30;;
9698;SDS011;10089;47.876;8.346;2023-09-08T11:25:49;6.80;;;4.40;;
9698;SDS011;10089;47.876;8.346;2023-09-08T11:28:16;5.75;;;4.53;;
9698;SDS011;10089;47.876;8.346;2023-09-08T11:30:42;5.68;;;4.97;;
9698;SDS011;10089;47.876;8.346;2023-09-08T11:33:15;4.80;;;4.40;;
9698;SDS011;10089;47.876;8.346;2023-09-08T11:35:41;5.45;;;4.95;;
9698;SDS011;10089;47.876;8.346;2023-09-08T11:38:09;6.20;;;4.78;;
9698;SDS011;10089;47.876;8.346;2023-09-08T11:40:35;9.48;;;5.22;;
9698;SDS011;10089;47.876;8.346;2023-09-08T11:43:02;5.50;;;5.00;;
9698;SDS011;10089;47.876;8.346;2023-09-08T11:45:28;5.10;;;4.60;;
9698;SDS011;10089;47.876;8.346;2023-09-08T11:47:55;8.07;;;4.80;;
9698;SDS011;10089;47.876;8.346;2023-09-08T11:50:22;6.63;;;5.10;;
9698;SDS011;10089;47.876;8.346;2023-09-08T11:52:49;5.75;;;4.82;;
9698;SDS011;10089;47.876;8.346;2023-09-08T11:55:16;6.18;;;5.22;;
9698;SDS011;10089;47.876;8.346;2023-09-08T11:57:45;5.95;;;4.93;;
9698;SDS011;10089;47.876;8.346;2023-09-08T12:00:13;6.47;;;4.93;;
9698;SDS011;10089;47.876;8.346;2023-09-08T12:02:42;6.47;;;4.32;;
9698;SDS011;10089;47.876;8.346;2023-09-08T12:05:27;5.63;;;4.85;;
9698;SDS011;10089;47.876;8.346;2023-09-08T12:07:54;5.32;;;4.72;;
9698;SDS011;10089;47.876;8.346;2023-09-08T12:10:21;6.40;;;4.78;;
9698;SDS011;10089;47.876;8.346;2023-09-08T12:12:48;5.55;;;4.95;;
9698;SDS011;10089;47.876;8.346;2023-09-08T12:15:31;4.82;;;4.25;;
9698;SDS011;10089;47.876;8.346;2023-09-08T12:17:58;7.75;;;4.50;;
9698;SDS011;10089;47.876;8.346;2023-09-08T12:20:25;7.50;;;4.97;;
9698;SDS011;10089;47.876;8.346;2023-09-08T12:22:51;6.13;;;4.93;;
9698;SDS011;10089;47.876;8.346;2023-09-08T12:25:17;4.82;;;4.38;;
9698;SDS011;10089;47.876;8.346;2023-09-08T12:27:44;5.18;;;4.68;;
9698;SDS011;10089;47.876;8.346;2023-09-08T12:30:21;8.40;;;4.80;;
9698;SDS011;10089;47.876;8.346;2023-09-08T12:33:08;4.78;;;4.28;;
9698;SDS011;10089;47.876;8.346;2023-09-08T12:35:36;10.43;;;5.05;;
9698;SDS011;10089;47.876;8.346;2023-09-08T12:38:03;5.93;;;4.68;;
9698;SDS011;10089;47.876;8.346;2023-09-08T12:40:33;5.05;;;4.40;;
9698;SDS011;10089;47.876;8.346;2023-09-08T12:43:00;6.32;;;5.20;;
9698;SDS011;10089;47.876;8.346;2023-09-08T12:45:27;5.50;;;5.00;;
9698;SDS011;10089;47.876;8.346;2023-09-08T12:47:53;5.43;;;4.93;;
9698;SDS011;10089;47.876;8.346;2023-09-08T12:50:23;7.75;;;5.32;;
9698;SDS011;10089;47.876;8.346;2023-09-08T12:52:49;5.40;;;4.90;;
9698;SDS011;10089;47.876;8.346;2023-09-08T12:55:15;7.38;;;4.93;;
9698;SDS011;10089;47.876;8.346;2023-09-08T12:57:41;9.43;;;4.93;;
9698;SDS011;10089;47.876;8.346;2023-09-08T13:00:07;6.55;;;4.85;;
9698;SDS011;10089;47.876;8.346;2023-09-08T13:02:33;6.07;;;5.10;;
9698;SDS011;10089;47.876;8.346;2023-09-08T13:04:59;7.38;;;4.85;;
9698;SDS011;10089;47.876;8.346;2023-09-08T13:07:26;6.65;;;5.45;;
9698;SDS011;10089;47.876;8.346;2023-09-08T13:09:52;5.57;;;4.88;;
9698;SDS011;10089;47.876;8.346;2023-09-08T13:12:17;6.43;;;5.20;;
9698;SDS011;10089;47.876;8.346;2023-09-08T13:14:43;6.47;;;5.05;;
9698;SDS011;10089;47.876;8.346;2023-09-08T13:17:10;7.18;;;4.97;;
9698;SDS011;10089;47.876;8.346;2023-09-08T13:19:36;11.73;;;5.20;;
9698;SDS011;10089;47.876;8.346;2023-09-08T13:22:03;5.25;;;4.50;;
9698;SDS011;10089;47.876;8.346;2023-09-08T13:24:29;6.10;;;5.07;;
9698;SDS011;10089;47.876;8.346;2023-09-08T13:26:57;5.25;;;4.70;;
9698;SDS011;10089;47.876;8.346;2023-09-08T13:29:22;5.15;;;4.60;;
9698;SDS011;10089;47.876;8.346;2023-09-08T13:36:57;6.60;;;5.07;;
9698;SDS011;10089;47.876;8.346;2023-09-08T13:39:22;5.60;;;4.72;;
9698;SDS011;10089;47.876;8.346;2023-09-08T13:41:49;5.72;;;4.97;;
9698;SDS011;10089;47.876;8.346;2023-09-08T13:44:20;11.30;;;5.07;;
9698;SDS011;10089;47.876;8.346;2023-09-08T13:46:47;6.10;;;4.95;;
9698;SDS011;10089;47.876;8.346;2023-09-08T13:49:14;5.78;;;5.03;;
9698;SDS011;10089;47.876;8.346;2023-09-08T13:51:40;11.02;;;6.00;;
9698;SDS011;10089;47.876;8.346;2023-09-08T13:54:06;8.80;;;5.43;;
9698;SDS011;10089;47.876;8.346;2023-09-08T13:56:33;6.93;;;4.45;;
9698;SDS011;10089;47.876;8.346;2023-09-08T13:58:59;7.78;;;4.90;;
9698;SDS011;10089;47.876;8.346;2023-09-08T14:01:25;6.32;;;4.78;;
9698;SDS011;10089;47.876;8.346;2023-09-08T14:03:54;6.80;;;5.07;;
9698;SDS011;10089;47.876;8.346;2023-09-08T14:06:20;5.85;;;5.30;;
9698;SDS011;10089;47.876;8.346;2023-09-08T14:08:47;8.85;;;5.20;;
9698;SDS011;10089;47.876;8.346;2023-09-08T14:11:12;6.90;;;5.22;;
9698;SDS011;10089;47.876;8.346;2023-09-08T14:13:38;7.78;;;5.20;;
9698;SDS011;10089;47.876;8.346;2023-09-08T14:16:03;6.07;;;4.65;;
9698;SDS011;10089;47.876;8.346;2023-09-08T14:18:29;6.22;;;4.85;;
9698;SDS011;10089;47.876;8.346;2023-09-08T14:20:55;7.05;;;5.07;;
9698;SDS011;10089;47.876;8.346;2023-09-08T14:23:22;4.95;;;4.47;;
9698;SDS011;10089;47.876;8.346;2023-09-08T14:25:48;8.95;;;5.00;;
9698;SDS011;10089;47.876;8.346;2023-09-08T14:28:14;6.05;;;4.75;;
9698;SDS011;10089;47.876;8.346;2023-09-08T14:30:39;7.03;;;5.10;;
9698;SDS011;10089;47.876;8.346;2023-09-08T14:33:05;5.88;;;5.00;;
9698;SDS011;10089;47.876;8.346;2023-09-08T14:35:32;7.32;;;4.78;;
9698;SDS011;10089;47.876;8.346;2023-09-08T14:37:58;5.78;;;4.82;;
9698;SDS011;10089;47.876;8.346;2023-09-08T14:40:24;5.47;;;4.35;;
9698;SDS011;10089;47.876;8.346;2023-09-08T14:42:50;5.68;;;5.07;;
9698;SDS011;10089;47.876;8.346;2023-09-08T14:45:15;5.40;;;4.85;;
9698;SDS011;10089;47.876;8.346;2023-09-08T14:47:41;6.82;;;5.00;;
9698;SDS011;10089;47.876;8.346;2023-09-08T14:50:07;5.80;;;5.30;;
9698;SDS011;10089;47.876;8.346;2023-09-08T14:52:32;7.80;;;5.05;;
9698;SDS011;10089;47.876;8.346;2023-09-08T14:54:58;6.38;;;5.25;;
9698;SDS011;10089;47.876;8.346;2023-09-08T14:57:24;6.03;;;4.70;;
9698;SDS011;10089;47.876;8.346;2023-09-08T14:59:50;5.78;;;5.07;;
9698;SDS011;10089;47.876;8.346;2023-09-08T15:02:19;6.53;;;5.30;;
9698;SDS011;10089;47.876;8.346;2023-09-08T15:04:45;6.10;;;4.90;;
9698;SDS011;10089;47.876;8.346;2023-09-08T15:07:10;5.70;;;4.65;;
9698;SDS011;10089;47.876;8.346;2023-09-08T15:09:36;5.70;;;5.20;;
9698;SDS011;10089;47.876;8.346;2023-09-08T15:12:02;7.85;;;4.75;;
9698;SDS011;10089;47.876;8.346;2023-09-08T15:14:27;6.80;;;5.22;;
9698;SDS011;10089;47.876;8.346;2023-09-08T15:16:53;9.60;;;4.75;;
9698;SDS011;10089;47.876;8.346;2023-09-08T15:19:19;7.80;;;5.30;;
9698;SDS011;10089;47.876;8.346;2023-09-08T15:21:44;6.55;;;5.00;;
9698;SDS011;10089;47.876;8.346;2023-09-08T15:24:10;8.88;;;5.00;;
9698;SDS011;10089;47.876;8.346;2023-09-08T15:26:35;6.78;;;4.88;;
9698;SDS011;10089;47.876;8.346;2023-09-08T15:29:01;8.32;;;5.57;;
9698;SDS011;10089;47.876;8.346;2023-09-08T15:31:26;6.38;;;5.10;;
9698;SDS011;10089;47.876;8.346;2023-09-08T15:33:52;10.65;;;4.93;;
9698;SDS011;10089;47.876;8.346;2023-09-08T15:36:18;6.72;;;5.30;;